createdAt,value
2023-04-26T00:00:21.753Z,83.60
2023-04-26T00:02:51.169Z,83.50
2023-04-26T00:05:19.704Z,83.50
2023-04-26T00:07:50.391Z,83.20
2023-04-26T00:10:18.637Z,82.30
2023-04-26T00:12:46.574Z,82.80
2023-04-26T00:15:14.763Z,83.00
2023-04-26T00:17:43.022Z,81.70
2023-04-26T00:20:13.700Z,82.60
2023-04-26T00:22:41.744Z,83.30
2023-04-26T00:25:11.223Z,84.40
2023-04-26T00:27:39.309Z,85.10
2023-04-26T00:30:09.149Z,85.00
2023-04-26T00:32:37.142Z,84.20
2023-04-26T00:35:06.304Z,85.60
2023-04-26T00:37:36.140Z,85.80
2023-04-26T00:40:04.346Z,87.30
2023-04-26T00:42:32.281Z,86.90
2023-04-26T00:45:00.260Z,85.80
2023-04-26T00:47:30.773Z,84.80
2023-04-26T00:49:59.220Z,83.80
2023-04-26T00:52:29.147Z,83.90
2023-04-26T00:54:59.267Z,84.10
2023-04-26T00:57:27.300Z,85.20
2023-04-26T00:59:55.233Z,85.50
2023-04-26T01:02:23.336Z,86.40
2023-04-26T01:04:51.757Z,87.00
2023-04-26T01:07:19.805Z,87.40
2023-04-26T01:09:49.505Z,87.70
2023-04-26T01:12:19.083Z,87.60
2023-04-26T01:14:47.910Z,87.20
2023-04-26T01:17:15.866Z,87.10
2023-04-26T01:19:48.848Z,87.70
2023-04-26T01:22:17.855Z,87.90
2023-04-26T01:24:51.074Z,87.90
2023-04-26T01:27:19.221Z,88.20
2023-04-26T01:29:47.658Z,88.30
2023-04-26T01:32:15.790Z,88.50
2023-04-26T01:34:43.749Z,88.70
2023-04-26T01:37:11.813Z,88.40
2023-04-26T01:39:39.753Z,88.10
2023-04-26T01:42:09.051Z,89.50
2023-04-26T01:44:37.043Z,90.00
2023-04-26T01:47:05.080Z,89.30
2023-04-26T01:49:33.314Z,88.50
2023-04-26T01:52:02.554Z,88.10
2023-04-26T01:54:30.709Z,88.30
2023-04-26T01:56:58.704Z,88.40
2023-04-26T01:59:28.017Z,88.50
2023-04-26T02:01:55.936Z,87.90
2023-04-26T02:04:24.239Z,86.70
2023-04-26T02:06:52.240Z,86.60
2023-04-26T02:09:20.165Z,88.30
2023-04-26T02:11:48.172Z,89.90
2023-04-26T02:14:16.213Z,90.00
2023-04-26T02:16:45.592Z,88.70
2023-04-26T02:19:13.544Z,88.70
2023-04-26T02:21:55.225Z,88.50
2023-04-26T02:24:23.270Z,88.80
2023-04-26T02:26:51.878Z,88.70
2023-04-26T02:29:24.615Z,88.80
2023-04-26T02:32:05.834Z,88.90
2023-04-26T02:34:33.889Z,89.70
2023-04-26T02:37:01.927Z,90.40
2023-04-26T02:39:29.852Z,90.50
2023-04-26T02:41:57.818Z,90.40
2023-04-26T02:44:25.838Z,90.30
2023-04-26T02:46:53.806Z,90.50
2023-04-26T02:49:23.108Z,90.50
2023-04-26T02:51:51.034Z,90.50
2023-04-26T02:54:18.998Z,90.90
2023-04-26T02:56:47.028Z,91.00
2023-04-26T02:59:15.001Z,90.80
2023-04-26T03:01:43.266Z,90.70
2023-04-26T03:04:12.176Z,90.90
2023-04-26T03:06:41.597Z,90.40
2023-04-26T03:09:09.614Z,90.10
2023-04-26T03:11:37.632Z,90.70
2023-04-26T03:14:05.621Z,91.40
2023-04-26T03:16:42.342Z,91.60
2023-04-26T03:19:10.755Z,90.80
2023-04-26T03:21:38.689Z,90.70
2023-04-26T03:24:08.629Z,91.10
2023-04-26T03:26:36.651Z,91.40
2023-04-26T03:29:06.811Z,91.40
2023-04-26T03:31:34.841Z,90.90
2023-04-26T03:34:02.809Z,90.30
2023-04-26T03:36:30.744Z,90.70
2023-04-26T03:38:58.721Z,90.60
2023-04-26T03:41:28.082Z,90.80
2023-04-26T03:43:56.020Z,91.10
2023-04-26T03:46:24.049Z,91.20
2023-04-26T03:48:52.198Z,91.30
2023-04-26T03:51:20.939Z,91.40
2023-04-26T03:53:48.943Z,91.60
2023-04-26T03:56:17.264Z,91.60
2023-04-26T03:58:47.407Z,91.50
2023-04-26T04:01:15.721Z,91.50
2023-04-26T04:03:44.005Z,92.10
2023-04-26T04:06:12.658Z,91.80
2023-04-26T04:08:40.635Z,92.00
2023-04-26T04:11:08.707Z,92.00
2023-04-26T04:13:36.661Z,92.00
2023-04-26T04:16:06.976Z,92.00
2023-04-26T04:18:35.280Z,92.00
2023-04-26T04:21:03.387Z,92.10
2023-04-26T04:23:31.880Z,92.20
2023-04-26T04:25:59.907Z,92.00
2023-04-26T04:28:27.902Z,92.00
2023-04-26T04:30:57.099Z,92.30
2023-04-26T04:33:28.670Z,92.60
2023-04-26T04:35:56.700Z,92.80
2023-04-26T04:38:24.799Z,92.90
2023-04-26T04:40:52.789Z,92.90
2023-04-26T04:43:21.534Z,92.80
2023-04-26T04:45:50.166Z,92.80
2023-04-26T04:48:20.569Z,92.80
2023-04-26T04:50:50.786Z,93.00
2023-04-26T04:53:18.901Z,93.10
2023-04-26T04:55:46.884Z,93.10
2023-04-26T04:58:15.052Z,93.10
2023-04-26T05:00:43.383Z,93.40
2023-04-26T05:03:11.584Z,93.40
2023-04-26T05:05:39.664Z,93.30
2023-04-26T05:08:09.081Z,93.00
2023-04-26T05:10:37.140Z,93.10
2023-04-26T05:13:05.694Z,93.30
2023-04-26T05:15:33.740Z,92.90
2023-04-26T05:18:02.187Z,92.80
2023-04-26T05:20:31.301Z,93.00
2023-04-26T05:22:59.247Z,93.20
2023-04-26T05:25:28.538Z,93.20
2023-04-26T05:27:56.606Z,93.10
2023-04-26T05:30:24.791Z,93.20
2023-04-26T05:32:52.809Z,92.90
2023-04-26T05:35:20.757Z,93.00
2023-04-26T05:37:48.769Z,93.20
2023-04-26T05:40:17.271Z,93.50
2023-04-26T05:42:47.040Z,93.40
2023-04-26T05:45:15.060Z,93.20
2023-04-26T05:47:43.108Z,93.30
2023-04-26T05:50:12.577Z,93.40
2023-04-26T05:52:40.569Z,93.30
2023-04-26T05:55:09.131Z,93.30
2023-04-26T05:57:37.164Z,93.50
2023-04-26T06:00:09.489Z,93.40
2023-04-26T06:02:37.571Z,93.30
2023-04-26T06:05:06.751Z,93.00
2023-04-26T06:07:35.157Z,93.20
2023-04-26T06:10:03.516Z,93.30
2023-04-26T06:12:31.591Z,93.40
2023-04-26T06:14:59.542Z,93.30
2023-04-26T06:17:28.983Z,93.10
2023-04-26T06:19:56.966Z,92.80
2023-04-26T06:22:25.013Z,92.40
2023-04-26T06:24:53.068Z,92.30
2023-04-26T06:27:21.181Z,92.00
2023-04-26T06:29:49.136Z,91.80
2023-04-26T06:32:17.214Z,92.40
2023-04-26T06:34:46.659Z,92.80
2023-04-26T06:37:14.681Z,92.80
2023-04-26T06:39:42.776Z,92.50
2023-04-26T06:42:11.545Z,92.40
2023-04-26T06:44:39.510Z,91.90
2023-04-26T06:47:09.474Z,91.30
2023-04-26T06:49:37.578Z,90.80
2023-04-26T06:52:09.090Z,91.50
2023-04-26T06:54:45.918Z,92.00
2023-04-26T06:57:22.016Z,91.60
2023-04-26T06:59:50.133Z,90.30
2023-04-26T07:02:18.236Z,89.20
2023-04-26T07:04:47.122Z,88.90
2023-04-26T07:07:17.201Z,88.50
2023-04-26T07:09:45.302Z,88.30
2023-04-26T07:12:13.684Z,88.40
2023-04-26T07:14:43.414Z,88.30
2023-04-26T07:17:11.562Z,88.40
2023-04-26T07:19:39.745Z,88.30
2023-04-26T07:22:07.702Z,88.60
2023-04-26T07:24:37.000Z,89.00
2023-04-26T07:27:05.405Z,88.20
2023-04-26T07:29:33.350Z,87.70
2023-04-26T07:32:01.334Z,87.00
2023-04-26T07:34:29.355Z,86.30
2023-04-26T07:36:57.654Z,85.70
2023-04-26T07:39:25.784Z,85.00
2023-04-26T07:41:55.077Z,84.00
2023-04-26T07:44:23.229Z,84.20
2023-04-26T07:46:51.254Z,84.80
2023-04-26T07:49:19.294Z,85.80
2023-04-26T07:51:47.303Z,85.00
2023-04-26T07:54:15.333Z,84.70
2023-04-26T07:56:43.350Z,82.30
2023-04-26T07:59:12.704Z,82.50
2023-04-26T08:01:40.701Z,82.40
2023-04-26T08:04:09.226Z,82.00
2023-04-26T08:06:38.901Z,81.80
2023-04-26T08:09:06.887Z,79.20
2023-04-26T08:11:35.031Z,79.20
2023-04-26T08:14:03.142Z,78.50
2023-04-26T08:16:32.473Z,78.50
2023-04-26T08:19:03.084Z,78.20
2023-04-26T08:21:31.820Z,76.70
2023-04-26T08:23:59.770Z,76.90
2023-04-26T08:26:27.689Z,76.50
2023-04-26T08:28:55.823Z,76.30
2023-04-26T08:31:23.799Z,73.20
2023-04-26T08:33:53.353Z,73.70
2023-04-26T08:36:21.685Z,73.60
2023-04-26T08:38:49.612Z,73.50
2023-04-26T08:41:23.603Z,70.80
2023-04-26T08:43:53.011Z,71.80
2023-04-26T08:46:22.033Z,70.40
2023-04-26T08:48:58.859Z,68.70
2023-04-26T08:51:27.627Z,66.90
2023-04-26T08:53:59.170Z,66.10
2023-04-26T08:56:27.742Z,66.10
2023-04-26T08:58:56.982Z,66.20
2023-04-26T09:01:27.104Z,66.10
2023-04-26T09:03:57.969Z,66.10
2023-04-26T09:06:28.285Z,65.40
2023-04-26T09:08:57.250Z,65.20
2023-04-26T09:11:25.261Z,65.50
2023-04-26T09:13:53.472Z,64.40
2023-04-26T09:16:21.816Z,62.60
2023-04-26T09:18:52.603Z,63.80
2023-04-26T09:21:22.335Z,62.10
2023-04-26T09:24:01.717Z,60.10
2023-04-26T09:26:29.695Z,59.20
2023-04-26T09:29:13.707Z,59.80
2023-04-26T09:31:44.858Z,58.00
2023-04-26T09:34:15.583Z,57.80
2023-04-26T09:36:52.179Z,54.70
2023-04-26T09:39:34.040Z,55.20
2023-04-26T09:42:03.519Z,57.00
2023-04-26T09:44:32.309Z,57.70
2023-04-26T09:47:05.406Z,55.90
2023-04-26T09:49:35.110Z,56.00
2023-04-26T09:52:07.983Z,56.40
2023-04-26T09:54:44.480Z,55.00
2023-04-26T09:57:13.015Z,54.70
2023-04-26T09:59:43.117Z,55.10
2023-04-26T10:02:16.240Z,53.70
2023-04-26T10:04:47.773Z,52.50
2023-04-26T10:07:18.731Z,53.40
2023-04-26T10:09:47.093Z,52.00
2023-04-26T10:12:16.644Z,52.10
2023-04-26T10:14:46.593Z,52.90
2023-04-26T10:17:15.275Z,53.50
2023-04-26T10:19:46.475Z,53.90
2023-04-26T10:22:21.512Z,54.50
2023-04-26T10:24:50.713Z,54.80
2023-04-26T10:27:38.881Z,55.20
2023-04-26T10:30:10.248Z,53.50
2023-04-26T10:33:17.436Z,53.70
2023-04-26T10:36:10.214Z,52.80
2023-04-26T10:38:44.143Z,52.50
2023-04-26T10:41:32.275Z,51.20
2023-04-26T10:44:02.023Z,51.80
2023-04-26T10:46:41.230Z,50.60
2023-04-26T10:49:17.143Z,50.00
2023-04-26T10:52:14.809Z,49.60
2023-04-26T10:54:57.802Z,50.30
2023-04-26T10:57:41.280Z,49.10
2023-04-26T11:00:33.777Z,49.20
2023-04-26T11:03:12.981Z,49.90
2023-04-26T11:05:53.248Z,49.40
2023-04-26T11:08:22.576Z,49.50
2023-04-26T11:11:00.033Z,49.40
2023-04-26T11:13:27.961Z,50.80
2023-04-26T11:16:00.904Z,49.50
2023-04-26T11:18:29.699Z,48.30
2023-04-26T11:20:57.895Z,44.40
2023-04-26T11:23:27.418Z,46.60
2023-04-26T11:25:58.909Z,48.50
2023-04-26T11:28:26.857Z,46.00
2023-04-26T11:30:55.850Z,45.00
2023-04-26T11:33:24.234Z,45.90
2023-04-26T11:35:52.856Z,45.00
2023-04-26T11:38:23.897Z,43.30
2023-04-26T11:40:57.201Z,44.10
2023-04-26T11:43:31.621Z,44.00
2023-04-26T11:46:01.448Z,43.10
2023-04-26T11:48:30.183Z,43.80
2023-04-26T11:50:58.737Z,40.70
2023-04-26T11:53:26.810Z,43.30
2023-04-26T11:55:56.174Z,41.00
2023-04-26T11:58:24.166Z,40.80
2023-04-26T12:00:58.872Z,41.00
2023-04-26T12:03:32.508Z,42.70
2023-04-26T12:06:01.130Z,42.50
2023-04-26T12:08:29.231Z,40.60
2023-04-26T12:11:02.929Z,41.60
2023-04-26T12:13:31.266Z,41.00
2023-04-26T12:15:59.307Z,38.70
2023-04-26T12:18:32.770Z,41.00
2023-04-26T12:21:01.850Z,41.40
2023-04-26T12:23:39.244Z,39.40
2023-04-26T12:26:11.295Z,37.30
2023-04-26T12:28:39.670Z,38.30
2023-04-26T12:31:08.274Z,39.80
2023-04-26T12:33:37.116Z,39.80
2023-04-26T12:36:09.488Z,41.00
2023-04-26T12:38:37.760Z,39.70
2023-04-26T12:41:06.556Z,40.10
2023-04-26T12:43:37.076Z,40.20
2023-04-26T12:46:05.489Z,39.70
2023-04-26T12:48:33.526Z,41.20
2023-04-26T12:51:01.664Z,41.50
2023-04-26T12:53:29.633Z,41.30
2023-04-26T12:55:57.634Z,41.80
2023-04-26T12:58:25.749Z,41.40
2023-04-26T13:00:55.075Z,42.20
2023-04-26T13:03:23.268Z,43.90
2023-04-26T13:05:51.759Z,42.90
2023-04-26T13:08:22.736Z,42.20
2023-04-26T13:10:51.256Z,42.30
2023-04-26T13:13:21.953Z,41.70
2023-04-26T13:15:52.112Z,42.30
2023-04-26T13:18:22.045Z,40.60
2023-04-26T13:20:50.063Z,40.70
2023-04-26T13:23:17.985Z,40.30
2023-04-26T13:25:45.919Z,41.60
2023-04-26T13:28:14.165Z,42.20
2023-04-26T13:30:42.447Z,42.70
2023-04-26T13:33:11.089Z,42.10
2023-04-26T13:35:40.483Z,42.50
2023-04-26T13:38:08.413Z,41.90
2023-04-26T13:40:38.068Z,43.40
2023-04-26T13:43:05.998Z,43.20
2023-04-26T13:45:36.813Z,40.20
2023-04-26T13:48:05.160Z,39.70
2023-04-26T13:50:33.183Z,39.20
2023-04-26T13:53:03.002Z,40.20
2023-04-26T13:55:30.976Z,39.70
2023-04-26T13:57:58.956Z,39.40
2023-04-26T14:00:27.207Z,40.40
2023-04-26T14:02:56.160Z,41.30
2023-04-26T14:05:24.636Z,41.30
2023-04-26T14:07:54.979Z,41.70
2023-04-26T14:10:24.603Z,43.30
2023-04-26T14:12:52.572Z,40.30
2023-04-26T14:15:20.553Z,41.90
2023-04-26T14:17:48.779Z,40.90
2023-04-26T14:20:17.097Z,40.80
2023-04-26T14:22:45.035Z,40.00
2023-04-26T14:25:13.011Z,39.10
2023-04-26T14:27:43.423Z,38.80
2023-04-26T14:30:11.834Z,37.70
2023-04-26T14:32:39.837Z,37.70
2023-04-26T14:35:08.407Z,38.50
2023-04-26T14:37:36.941Z,38.20
2023-04-26T14:40:06.436Z,36.80
2023-04-26T14:42:34.457Z,35.80
2023-04-26T14:45:03.768Z,35.00
2023-04-26T14:47:31.832Z,33.00
2023-04-26T14:49:59.951Z,31.20
2023-04-26T14:52:29.163Z,31.50
2023-04-26T14:54:57.320Z,31.50
2023-04-26T14:57:25.396Z,32.30
2023-04-26T14:59:53.347Z,32.20
2023-04-26T15:02:22.737Z,30.90
2023-04-26T15:04:51.079Z,32.50
2023-04-26T15:07:31.212Z,30.90
2023-04-26T15:09:59.753Z,30.00
2023-04-26T15:12:28.126Z,30.00
2023-04-26T15:14:56.240Z,31.00
2023-04-26T15:17:25.649Z,30.60
2023-04-26T15:19:53.651Z,30.60
2023-04-26T15:22:21.635Z,31.00
2023-04-26T15:24:50.894Z,31.20
2023-04-26T15:27:18.943Z,32.10
2023-04-26T15:29:46.951Z,30.70
2023-04-26T15:32:14.954Z,30.80
2023-04-26T15:34:45.283Z,31.10
2023-04-26T15:37:13.336Z,32.50
2023-04-26T15:39:41.383Z,32.60
2023-04-26T15:42:09.460Z,33.30
2023-04-26T15:44:37.387Z,33.50
2023-04-26T15:47:05.597Z,34.30
2023-04-26T15:49:33.584Z,34.60
2023-04-26T15:52:02.947Z,35.30
2023-04-26T15:54:30.891Z,35.10
2023-04-26T15:56:59.384Z,36.10
2023-04-26T15:59:27.436Z,36.40
2023-04-26T16:01:55.438Z,36.60
2023-04-26T16:04:23.667Z,37.60
2023-04-26T16:06:51.882Z,38.00
2023-04-26T16:09:25.268Z,38.10
2023-04-26T16:11:53.603Z,37.90
2023-04-26T16:14:25.488Z,39.10
2023-04-26T16:16:53.469Z,40.10
2023-04-26T16:19:22.047Z,41.40
2023-04-26T16:21:50.061Z,42.50
2023-04-26T16:24:18.025Z,42.30
2023-04-26T16:26:47.491Z,41.80
2023-04-26T16:29:15.490Z,42.60
2023-04-26T16:31:44.234Z,45.00
2023-04-26T16:34:12.335Z,44.00
2023-04-26T16:36:40.377Z,43.80
2023-04-26T16:39:08.735Z,45.30
2023-04-26T16:41:36.684Z,46.10
2023-04-26T16:44:05.998Z,46.70
2023-04-26T16:46:34.013Z,47.10
2023-04-26T16:49:02.156Z,48.40
2023-04-26T16:51:30.286Z,48.50
2023-04-26T16:53:58.227Z,48.50
2023-04-26T16:56:26.234Z,48.70
2023-04-26T16:58:54.253Z,49.00
2023-04-26T17:01:23.672Z,49.40
2023-04-26T17:03:52.297Z,49.70
2023-04-26T17:06:20.520Z,49.20
2023-04-26T17:08:48.570Z,49.80
2023-04-26T17:11:17.103Z,50.80
2023-04-26T17:13:45.596Z,51.00
2023-04-26T17:16:13.702Z,51.50
2023-04-26T17:18:43.076Z,52.60
2023-04-26T17:21:11.751Z,53.50
2023-04-26T17:23:39.710Z,53.90
2023-04-26T17:26:07.883Z,53.50
2023-04-26T17:28:37.698Z,54.60
2023-04-26T17:31:05.848Z,55.10
2023-04-26T17:33:33.869Z,54.60
2023-04-26T17:36:03.198Z,54.30
2023-04-26T17:38:31.369Z,54.30
2023-04-26T17:41:00.389Z,55.50
2023-04-26T17:43:28.397Z,55.80
2023-04-26T17:45:56.433Z,55.90
2023-04-26T17:48:24.545Z,56.70
2023-04-26T17:50:52.919Z,54.20
2023-04-26T17:53:22.644Z,55.50
2023-04-26T17:55:53.009Z,53.90
2023-04-26T17:58:21.314Z,56.90
2023-04-26T18:00:49.852Z,58.10
2023-04-26T18:03:18.078Z,57.40
2023-04-26T18:05:46.381Z,57.00
2023-04-26T18:08:14.332Z,58.00
2023-04-26T18:10:43.620Z,58.30
2023-04-26T18:13:12.174Z,57.90
2023-04-26T18:15:40.122Z,57.70
2023-04-26T18:18:08.248Z,57.20
2023-04-26T18:20:37.081Z,55.40
2023-04-26T18:23:05.068Z,55.70
2023-04-26T18:25:33.123Z,56.10
2023-04-26T18:28:02.434Z,55.80
2023-04-26T18:30:33.205Z,56.80
2023-04-26T18:33:01.245Z,57.70
2023-04-26T18:35:29.254Z,57.10
2023-04-26T18:37:57.236Z,57.40
2023-04-26T18:40:25.232Z,58.00
2023-04-26T18:42:53.319Z,58.50
2023-04-26T18:45:22.698Z,59.00
2023-04-26T18:47:52.008Z,60.90
2023-04-26T18:50:21.999Z,59.80
2023-04-26T18:52:49.950Z,60.70
2023-04-26T18:55:18.010Z,61.70
2023-04-26T18:57:46.126Z,60.60
2023-04-26T19:00:20.632Z,60.40
2023-04-26T19:02:56.655Z,62.20
2023-04-26T19:05:25.452Z,62.20
2023-04-26T19:07:53.807Z,61.70
2023-04-26T19:10:22.400Z,64.10
2023-04-26T19:12:50.392Z,65.30
2023-04-26T19:15:18.525Z,65.20
2023-04-26T19:17:46.755Z,65.60
2023-04-26T19:20:16.313Z,65.40
2023-04-26T19:22:45.312Z,65.70
2023-04-26T19:25:13.875Z,66.00
2023-04-26T19:27:42.333Z,65.90
2023-04-26T19:30:11.351Z,66.40
2023-04-26T19:32:39.377Z,68.10
2023-04-26T19:35:08.588Z,69.60
2023-04-26T19:37:38.090Z,68.00
2023-04-26T19:40:07.588Z,67.10
2023-04-26T19:42:35.559Z,67.50
2023-04-26T19:45:03.616Z,68.60
2023-04-26T19:47:32.160Z,68.50
2023-04-26T19:50:00.862Z,69.00
2023-04-26T19:52:28.837Z,71.30
2023-04-26T19:54:58.182Z,72.60
2023-04-26T19:57:26.131Z,73.00
2023-04-26T19:59:54.140Z,72.30
2023-04-26T20:02:24.275Z,70.80
2023-04-26T20:04:52.361Z,71.30
2023-04-26T20:07:20.369Z,71.40
2023-04-26T20:09:48.379Z,71.40
2023-04-26T20:12:17.830Z,72.40
2023-04-26T20:14:45.827Z,73.00
2023-04-26T20:17:13.914Z,73.00
2023-04-26T20:19:42.699Z,72.60
2023-04-26T20:22:11.164Z,71.90
2023-04-26T20:24:39.119Z,72.30
2023-04-26T20:27:07.180Z,72.60
2023-04-26T20:29:37.181Z,72.20
2023-04-26T20:32:05.589Z,74.10
2023-04-26T20:34:33.726Z,76.00
2023-04-26T20:37:01.721Z,73.80
2023-04-26T20:39:33.604Z,74.00
2023-04-26T20:42:02.389Z,76.30
2023-04-26T20:44:30.361Z,75.90
2023-04-26T20:46:59.775Z,76.70
2023-04-26T20:49:28.301Z,78.60
2023-04-26T20:51:56.254Z,79.50
2023-04-26T20:54:24.457Z,78.60
2023-04-26T20:56:52.531Z,75.90
2023-04-26T20:59:20.504Z,76.30
2023-04-26T21:01:48.504Z,78.10
2023-04-26T21:04:18.100Z,78.50
2023-04-26T21:06:46.354Z,78.80
2023-04-26T21:09:14.446Z,80.00
2023-04-26T21:11:42.522Z,77.50
2023-04-26T21:14:10.552Z,77.60
2023-04-26T21:16:38.551Z,79.80
2023-04-26T21:19:06.733Z,79.90
2023-04-26T21:21:36.419Z,81.10
2023-04-26T21:24:04.790Z,80.00
2023-04-26T21:26:32.821Z,79.50
2023-04-26T21:29:00.804Z,81.60
2023-04-26T21:31:28.827Z,81.90
2023-04-26T21:33:56.821Z,82.60
2023-04-26T21:36:24.777Z,81.50
2023-04-26T21:38:54.133Z,80.80
2023-04-26T21:41:23.396Z,81.40
2023-04-26T21:43:52.215Z,81.90
2023-04-26T21:46:20.340Z,82.70
2023-04-26T21:48:48.352Z,82.90
2023-04-26T21:51:16.319Z,83.70
2023-04-26T21:53:44.478Z,83.90
2023-04-26T21:56:14.711Z,83.30
2023-04-26T21:58:43.120Z,83.60
2023-04-26T22:01:12.540Z,84.90
2023-04-26T22:03:41.220Z,85.20
2023-04-26T22:06:11.019Z,85.40
2023-04-26T22:08:38.987Z,84.80
2023-04-26T22:11:07.121Z,84.30
2023-04-26T22:13:36.538Z,84.70
2023-04-26T22:16:04.793Z,86.20
2023-04-26T22:18:32.776Z,86.40
2023-04-26T22:21:01.179Z,85.10
2023-04-26T22:23:31.241Z,85.20
2023-04-26T22:26:00.764Z,86.20
2023-04-26T22:28:28.737Z,87.00
2023-04-26T22:30:58.056Z,87.40
2023-04-26T22:33:26.183Z,86.90
2023-04-26T22:35:57.618Z,87.50
2023-04-26T22:38:26.171Z,88.00
2023-04-26T22:40:54.129Z,88.40
2023-04-26T22:43:23.126Z,88.80
2023-04-26T22:45:51.200Z,88.50
2023-04-26T22:48:20.570Z,89.10
2023-04-26T22:50:50.059Z,89.40
2023-04-26T22:53:19.812Z,88.30
2023-04-26T22:55:47.894Z,88.30
2023-04-26T22:58:17.202Z,88.00
2023-04-26T23:00:45.396Z,88.00
2023-04-26T23:03:13.526Z,88.70
2023-04-26T23:05:43.141Z,87.40
2023-04-26T23:08:11.343Z,87.40
2023-04-26T23:10:39.908Z,89.70
2023-04-26T23:13:08.959Z,89.90
2023-04-26T23:15:37.015Z,88.70
2023-04-26T23:18:05.409Z,88.40
2023-04-26T23:20:33.428Z,89.10
2023-04-26T23:23:02.759Z,90.10
2023-04-26T23:25:30.760Z,90.50
2023-04-26T23:28:00.149Z,90.20
2023-04-26T23:30:28.196Z,90.00
2023-04-26T23:32:56.184Z,89.10
2023-04-26T23:35:24.200Z,89.40
2023-04-26T23:37:52.561Z,90.50
2023-04-26T23:40:21.970Z,90.70
2023-04-26T23:42:49.927Z,90.90
2023-04-26T23:45:19.336Z,90.60
2023-04-26T23:47:47.369Z,90.30
2023-04-26T23:50:15.566Z,90.20
2023-04-26T23:52:43.608Z,90.40
2023-04-26T23:55:12.038Z,90.40
2023-04-26T23:57:41.341Z,89.90
